Aberdeen, Mississippi
Current Conditions -  °F | °C
As of 10:35 PM on Saturday 25 Oct 2014 (Local Time) from KM40 Reporting Station
Haze Haze  
Wind Chill: 16°   Ceiling: Unl
Heat Index: 16°   Visibility: 2.5mi
Dew Point:   Wind: 0mph
Humidity: 55%   Direction: NA
Pressure: 30.07"   Gusts: NA
Location:  33.82°N, 88.54°W
Report Text: KM40 260335Z AUTO 00000KT 2 1/2SM HZ CLR 16/07 A3007 RMK AO2
Loading
Personal Weather Stations






























Interactive Weather Map
Tropical Storm Tracking
New forecast layout! Learn more

10-Day Weather Forecast

Advertisements
Track Severe Weather on mobile